Decoded Metar for LFRM (LE MANS in FRANCE) (IATA:LME) | Meteo·Mobile Aviation Weather
aviador You're here:

LFRM Decoded Metar

LE MANS in FRANCE
Report Time2018-08-22 05:30:00
UTC Time2018-08-22 05:36:09
Flight Rules vfr VFR
WindCalm
Visibility9999 m
Phenomena:N/A
Clouds:N/A
Expected CloudBase > 800 ft AGL from Temp-Dew spread
CeilingNone
Temp17°C (ISA +2)
Dew Point15°C (88% RH)
QNH1018 hPa
Density Alt505 ft
Elevation171 ft
Report Wrong Elevation
Raw Report
METAR LFRM 220530Z AUTO 00000KT CAVOK 17/15 Q1018 NOSIG=

Extra information for LFRM:More info

Metar Taf Metar & Taf Last 4 Metars F.Rules Stats Wind Profile Meteogram Temp Stats Airport Information Weather charts Add Link Nearby VenuesMetar ALERT Operation Metar Decoded Social comments